createdAt,value
2019-02-18T00:00:14.922Z,24.9
2019-02-18T00:01:04.389Z,24.8
2019-02-18T00:01:54.005Z,24.6
2019-02-18T00:02:44.251Z,24.6
2019-02-18T00:03:35.561Z,24.7
2019-02-18T00:04:24.406Z,24.9
2019-02-18T00:05:14.753Z,25.3
2019-02-18T00:06:05.103Z,25.5
2019-02-18T00:06:54.919Z,25.8
2019-02-18T00:07:44.909Z,26.1
2019-02-18T00:08:34.678Z,26.3
2019-02-18T00:09:24.781Z,26.5
2019-02-18T00:10:15.171Z,26.8
2019-02-18T00:11:04.440Z,27.1
2019-02-18T00:11:55.240Z,27.3
2019-02-18T00:12:45.578Z,27.4
2019-02-18T00:13:35.572Z,27.3
2019-02-18T00:14:24.805Z,27.3
2019-02-18T00:15:15.773Z,27.2
2019-02-18T00:16:05.218Z,27.1
2019-02-18T00:16:55.105Z,26.9
2019-02-18T00:17:45.847Z,26.8
2019-02-18T00:18:36.510Z,26.7
2019-02-18T00:19:25.455Z,26.6
2019-02-18T00:20:15.495Z,26.4
2019-02-18T00:21:06.707Z,26.4
2019-02-18T00:21:56.144Z,25.8
2019-02-18T00:22:46.213Z,25.4
2019-02-18T00:23:36.575Z,25.3
2019-02-18T00:24:26.098Z,25.1
2019-02-18T00:25:16.415Z,25
2019-02-18T00:26:05.722Z,24.9
2019-02-18T00:26:55.942Z,24.8
2019-02-18T00:27:46.914Z,24.7
2019-02-18T00:28:38.456Z,24.6
2019-02-18T00:29:25.388Z,24.7
2019-02-18T00:30:15.439Z,24.9
2019-02-18T00:31:05.757Z,25.2
2019-02-18T00:31:57.424Z,25.4
2019-02-18T00:32:47.465Z,25.8
2019-02-18T00:33:37.222Z,26
2019-02-18T00:34:26.999Z,26.3
2019-02-18T00:35:16.933Z,26.5
2019-02-18T00:36:08.041Z,26.8
2019-02-18T00:36:55.919Z,27
2019-02-18T00:37:46.453Z,27.3
2019-02-18T00:38:36.756Z,27.4
2019-02-18T00:39:26.588Z,27.3
2019-02-18T00:40:17.704Z,27.3
2019-02-18T00:41:06.683Z,27.1
2019-02-18T00:41:58.552Z,27.1
2019-02-18T00:42:47.316Z,26.9
2019-02-18T00:43:37.679Z,26.8
2019-02-18T00:44:27.556Z,26.7
2019-02-18T00:45:17.843Z,26.6
2019-02-18T00:46:07.315Z,26.4
2019-02-18T00:46:57.178Z,26.3
2019-02-18T00:47:49.596Z,25.8
2019-02-18T00:48:37.726Z,25.4
2019-02-18T00:49:27.050Z,25.3
2019-02-18T00:50:17.288Z,25.1
2019-02-18T00:51:07.313Z,24.9
2019-02-18T00:51:57.700Z,24.8
2019-02-18T00:52:48.071Z,24.7
2019-02-18T00:53:38.950Z,24.6
2019-02-18T00:54:28.685Z,24.5
2019-02-18T00:55:18.232Z,24.8
2019-02-18T00:56:07.740Z,24.9
2019-02-18T00:56:58.258Z,25.3
2019-02-18T00:57:48.155Z,25.6
2019-02-18T00:58:38.740Z,25.8
2019-02-18T00:59:28.827Z,26
2019-02-18T01:00:18.766Z,26.2
2019-02-18T01:01:08.313Z,26.4
2019-02-18T01:01:58.677Z,26.7
2019-02-18T01:02:48.162Z,27
2019-02-18T01:03:39.042Z,27.3
2019-02-18T01:04:29.412Z,27.4
2019-02-18T01:05:18.989Z,27.3
2019-02-18T01:06:08.414Z,27.3
2019-02-18T01:06:59.307Z,27.1
2019-02-18T01:07:48.812Z,27
2019-02-18T01:08:39.454Z,26.9
2019-02-18T01:09:29.764Z,26.8
2019-02-18T01:10:19.830Z,26.7
2019-02-18T01:11:09.125Z,26.6
2019-02-18T01:11:59.616Z,26.4
2019-02-18T01:12:49.137Z,26.3
2019-02-18T01:13:39.717Z,25.8
2019-02-18T01:14:30.066Z,25.4
2019-02-18T01:15:19.201Z,25.2
2019-02-18T01:16:09.959Z,25
2019-02-18T01:16:58.866Z,24.9
2019-02-18T01:17:50.022Z,24.8
2019-02-18T01:18:40.366Z,24.6
2019-02-18T01:19:30.159Z,24.6
2019-02-18T01:20:20.096Z,24.6
2019-02-18T01:21:09.757Z,24.8
2019-02-18T01:21:59.739Z,25
2019-02-18T01:22:51.376Z,25.3
2019-02-18T01:23:41.081Z,25.6
2019-02-18T01:24:29.703Z,25.8
2019-02-18T01:25:19.616Z,26
2019-02-18T01:26:10.629Z,26.2
2019-02-18T01:27:00.086Z,26.4
2019-02-18T01:27:50.273Z,26.7
2019-02-18T01:28:40.553Z,26.9
2019-02-18T01:29:30.268Z,27.1
2019-02-18T01:30:20.136Z,27.4
2019-02-18T01:31:10.220Z,27.4
2019-02-18T01:32:00.765Z,27.4
2019-02-18T01:32:51.345Z,27.3
2019-02-18T01:33:40.526Z,26.5
2019-02-18T01:34:31.740Z,25.6
2019-02-18T01:35:20.724Z,25.1
2019-02-18T01:36:11.080Z,25.1
2019-02-18T01:37:00.787Z,25.4
2019-02-18T01:37:54.452Z,25.8
2019-02-18T01:38:41.567Z,26.1
2019-02-18T01:39:31.572Z,26.4
2019-02-18T01:40:21.720Z,26.5
2019-02-18T01:41:12.232Z,26.8
2019-02-18T01:42:01.384Z,27
2019-02-18T01:42:52.033Z,27.3
2019-02-18T01:43:40.992Z,27.4
2019-02-18T01:44:31.925Z,27.3
2019-02-18T01:45:20.526Z,27.3
2019-02-18T01:46:12.285Z,27.1
2019-02-18T01:47:02.356Z,27
2019-02-18T01:47:51.815Z,26.9
2019-02-18T01:48:42.467Z,26.8
2019-02-18T01:49:31.399Z,26.6
2019-02-18T01:50:22.182Z,26.6
2019-02-18T01:51:12.046Z,26.4
2019-02-18T01:52:01.561Z,26.3
2019-02-18T01:52:52.216Z,25.9
2019-02-18T01:53:41.934Z,25.5
2019-02-18T01:54:31.454Z,25.3
2019-02-18T01:55:22.705Z,25.1
2019-02-18T01:56:13.221Z,24.9
2019-02-18T01:57:02.481Z,24.8
2019-02-18T01:57:52.766Z,24.6
2019-02-18T01:58:42.086Z,24.6
2019-02-18T01:59:32.306Z,24.6
2019-02-18T02:00:22.013Z,24.8
2019-02-18T02:01:12.819Z,25
2019-02-18T02:02:02.018Z,25.3
2019-02-18T02:02:52.773Z,25.5
2019-02-18T02:03:43.847Z,25.8
2019-02-18T02:04:32.231Z,26
2019-02-18T02:05:23.525Z,26.2
2019-02-18T02:06:11.991Z,26.4
2019-02-18T02:07:03.763Z,26.7
2019-02-18T02:08:04.551Z,27
2019-02-18T02:08:42.798Z,27.3
2019-02-18T02:09:32.807Z,27.4
2019-02-18T02:10:23.213Z,27.3
2019-02-18T02:11:12.955Z,27.3
2019-02-18T02:12:03.174Z,27.1
2019-02-18T02:12:54.400Z,27
2019-02-18T02:13:44.447Z,26.9
2019-02-18T02:14:32.953Z,26.8
2019-02-18T02:15:24.341Z,26.7
2019-02-18T02:16:14.025Z,26.6
2019-02-18T02:17:03.643Z,26.4
2019-02-18T02:17:53.337Z,26.3
2019-02-18T02:18:44.275Z,26.1
2019-02-18T02:19:34.022Z,25.5
2019-02-18T02:20:23.837Z,25.2
2019-02-18T02:21:13.689Z,25
2019-02-18T02:22:04.177Z,24.9
2019-02-18T02:22:54.250Z,24.8
2019-02-18T02:23:44.850Z,24.6
2019-02-18T02:24:34.377Z,24.5
2019-02-18T02:25:24.743Z,24.6
2019-02-18T02:26:15.042Z,24.8
2019-02-18T02:27:04.265Z,25
2019-02-18T02:27:54.597Z,25.3
2019-02-18T02:28:44.693Z,25.5
2019-02-18T02:29:34.528Z,25.8
2019-02-18T02:30:25.560Z,25.9
2019-02-18T02:31:15.311Z,26.2
2019-02-18T02:32:05.652Z,26.4
2019-02-18T02:32:55.041Z,26.6
2019-02-18T02:33:45.336Z,26.9
2019-02-18T02:34:35.165Z,27.1
2019-02-18T02:35:24.851Z,27.3
2019-02-18T02:36:15.820Z,27.4
2019-02-18T02:37:05.799Z,27.3
2019-02-18T02:38:06.897Z,27.2
2019-02-18T02:38:44.910Z,27.1
2019-02-18T02:39:36.378Z,26.9
2019-02-18T02:40:24.976Z,26.8
2019-02-18T02:41:15.620Z,26.8
2019-02-18T02:42:05.393Z,26.6
2019-02-18T02:42:56.343Z,26.5
2019-02-18T02:43:46.376Z,26.4
2019-02-18T02:44:36.415Z,26.3
2019-02-18T02:45:26.783Z,26.1
2019-02-18T02:46:16.066Z,25.6
2019-02-18T02:47:06.086Z,25.3
2019-02-18T02:47:55.999Z,25
2019-02-18T02:48:46.670Z,24.8
2019-02-18T02:49:36.854Z,24.7
2019-02-18T02:50:27.077Z,24.6
2019-02-18T02:51:17.203Z,24.4
2019-02-18T02:52:06.573Z,24.6
2019-02-18T02:52:56.230Z,24.8
2019-02-18T02:53:46.901Z,25
2019-02-18T02:54:35.805Z,25.3
2019-02-18T02:55:26.539Z,25.5
2019-02-18T02:56:16.698Z,25.8
2019-02-18T02:57:06.100Z,25.9
2019-02-18T02:57:56.193Z,26.1
2019-02-18T02:58:45.955Z,26.3
2019-02-18T02:59:36.078Z,26.6
2019-02-18T03:00:26.522Z,26.8
2019-02-18T03:01:18.132Z,27
2019-02-18T03:02:06.562Z,27.2
2019-02-18T03:02:57.152Z,27.4
2019-02-18T03:03:46.658Z,27.3
2019-02-18T03:04:36.230Z,27.3
2019-02-18T03:08:22.952Z,26.8
2019-02-18T03:08:59.049Z,26.6
2019-02-18T03:09:49.526Z,26.6
2019-02-18T03:10:39.069Z,26.4
2019-02-18T03:11:29.361Z,26.3
2019-02-18T03:12:19.498Z,26.2
2019-02-18T03:13:09.504Z,25.7
2019-02-18T03:13:59.555Z,25.3
2019-02-18T03:14:49.354Z,25
2019-02-18T03:15:40.025Z,24.8
2019-02-18T03:16:28.969Z,24.7
2019-02-18T03:17:19.098Z,24.6
2019-02-18T03:18:10.744Z,24.4
2019-02-18T03:19:00.218Z,24.6
2019-02-18T03:19:50.455Z,24.8
2019-02-18T03:20:40.541Z,25
2019-02-18T03:21:30.357Z,25.3
2019-02-18T03:22:19.754Z,25.5
2019-02-18T03:23:09.921Z,25.7
2019-02-18T03:24:00.906Z,25.9
2019-02-18T03:24:49.776Z,26.1
2019-02-18T03:25:40.932Z,26.3
2019-02-18T03:26:30.914Z,26.5
2019-02-18T03:27:20.499Z,26.8
2019-02-18T03:28:09.638Z,26.9
2019-02-18T03:29:01.588Z,27.1
2019-02-18T03:29:52.003Z,27.3
2019-02-18T03:30:41.500Z,27.3
2019-02-18T03:31:31.259Z,27.3
2019-02-18T03:32:21.040Z,27.1
2019-02-18T03:33:12.481Z,27.1
2019-02-18T03:34:02.183Z,26.9
2019-02-18T03:34:50.728Z,26.8
2019-02-18T03:35:42.385Z,26.7
2019-02-18T03:36:31.586Z,26.6
2019-02-18T03:37:21.700Z,26.4
2019-02-18T03:38:12.384Z,26.3
2019-02-18T03:39:02.101Z,26.2
2019-02-18T03:39:52.171Z,25.9
2019-02-18T03:40:41.896Z,25.4
2019-02-18T03:41:32.460Z,25.1
2019-02-18T03:42:22.014Z,24.9
2019-02-18T03:43:11.731Z,24.8
2019-02-18T03:44:02.127Z,24.6
2019-02-18T03:44:52.439Z,24.4
2019-02-18T03:45:41.735Z,24.4
2019-02-18T03:46:32.942Z,24.7
2019-02-18T03:47:20.840Z,24.9
2019-02-18T03:48:12.495Z,25.3
2019-02-18T03:49:02.197Z,25.4
2019-02-18T03:49:52.892Z,25.6
2019-02-18T03:50:42.790Z,25.8
2019-02-18T03:51:32.658Z,25.9
2019-02-18T03:52:23.262Z,26.1
2019-02-18T03:53:13.075Z,26.4
2019-02-18T03:54:03.049Z,26.6
2019-02-18T03:54:53.159Z,26.8
2019-02-18T03:55:43.001Z,27
2019-02-18T03:56:32.765Z,27.2
2019-02-18T03:57:22.801Z,27.3
2019-02-18T03:58:13.132Z,27.4
2019-02-18T03:59:02.973Z,27.3
2019-02-18T03:59:53.336Z,27.2
2019-02-18T04:00:42.815Z,27.1
2019-02-18T04:01:33.908Z,26.9
2019-02-18T04:02:22.882Z,26.8
2019-02-18T04:03:12.892Z,26.7
2019-02-18T04:04:03.576Z,26.6
2019-02-18T04:04:54.193Z,26.5
2019-02-18T04:05:43.638Z,26.3
2019-02-18T04:06:32.979Z,26.3
2019-02-18T04:07:24.063Z,25.6
2019-02-18T04:08:13.747Z,25.3
2019-02-18T04:09:04.176Z,25
2019-02-18T04:09:53.619Z,24.8
2019-02-18T04:10:44.024Z,24.7
2019-02-18T04:11:34.174Z,24.6
2019-02-18T04:12:23.265Z,24.4
2019-02-18T04:13:15.291Z,24.5
2019-02-18T04:14:04.893Z,24.8
2019-02-18T04:14:55.146Z,24.9
2019-02-18T04:15:44.287Z,25.3
2019-02-18T04:16:34.735Z,25.4
2019-02-18T04:17:23.911Z,25.6
2019-02-18T04:18:14.810Z,25.8
2019-02-18T04:19:04.557Z,26
2019-02-18T04:19:56.190Z,26.2
2019-02-18T04:20:44.760Z,26.4
2019-02-18T04:21:34.565Z,26.6
2019-02-18T04:22:24.528Z,26.7
2019-02-18T04:23:14.856Z,26.6
2019-02-18T04:24:04.595Z,26
2019-02-18T04:24:55.001Z,25.4
2019-02-18T04:25:44.905Z,24.4
2019-02-18T04:26:35.461Z,23.6
2019-02-18T04:27:25.362Z,23.1
2019-02-18T04:28:14.595Z,23
2019-02-18T04:29:05.217Z,23.5
2019-02-18T04:29:55.036Z,24.3
2019-02-18T04:30:45.380Z,24.9
2019-02-18T04:31:35.833Z,25.3
2019-02-18T04:32:25.992Z,25.5
2019-02-18T04:33:16.151Z,25.7
2019-02-18T04:34:05.566Z,25.9
2019-02-18T04:34:55.875Z,26.2
2019-02-18T04:35:45.979Z,26.4
2019-02-18T04:36:36.347Z,26.7
2019-02-18T04:37:26.359Z,26.9
2019-02-18T04:38:15.587Z,27.1
2019-02-18T04:39:05.899Z,27.3
2019-02-18T04:39:55.870Z,27.3
2019-02-18T04:40:45.781Z,27.3
2019-02-18T04:41:36.669Z,27.1
2019-02-18T04:42:26.687Z,27.1
2019-02-18T04:43:17.022Z,26.9
2019-02-18T04:44:06.613Z,26.8
2019-02-18T04:44:56.061Z,26.7
2019-02-18T04:45:45.645Z,26.6
2019-02-18T04:46:37.624Z,26.4
2019-02-18T04:47:26.367Z,26.3
2019-02-18T04:48:17.481Z,26.3
2019-02-18T04:49:07.528Z,25.5
2019-02-18T04:49:57.727Z,25.1
2019-02-18T04:50:47.585Z,24.9
2019-02-18T04:51:36.826Z,24.8
2019-02-18T04:52:26.853Z,24.6
2019-02-18T04:53:17.152Z,24.5
2019-02-18T04:54:07.246Z,24.4
2019-02-18T04:54:57.317Z,24.7
2019-02-18T04:55:46.745Z,24.9
2019-02-18T04:56:37.206Z,25.3
2019-02-18T04:57:27.825Z,25.4
2019-02-18T04:58:17.558Z,25.6
2019-02-18T04:59:07.081Z,25.8
2019-02-18T04:59:57.945Z,26
2019-02-18T05:00:46.654Z,26.2
2019-02-18T05:01:38.350Z,26.4
2019-02-18T05:02:27.837Z,26.6
2019-02-18T05:03:17.874Z,26.9
2019-02-18T05:04:07.270Z,27
2019-02-18T05:04:58.053Z,27.2
2019-02-18T05:05:48.060Z,27.4
2019-02-18T05:06:37.927Z,27.3
2019-02-18T05:07:28.715Z,27.3
2019-02-18T05:08:18.797Z,27.1
2019-02-18T05:09:14.582Z,27
2019-02-18T05:09:58.357Z,26.9
2019-02-18T05:10:49.244Z,26.8
2019-02-18T05:11:38.743Z,26.7
2019-02-18T05:12:28.497Z,26.5
2019-02-18T05:13:18.619Z,26.4
2019-02-18T05:14:08.167Z,26.3
2019-02-18T05:14:58.945Z,26.2
2019-02-18T05:15:49.407Z,25.6
2019-02-18T05:16:38.301Z,25.2
2019-02-18T05:17:28.553Z,24.9
2019-02-18T05:18:18.306Z,24.8
2019-02-18T05:19:08.724Z,24.6
2019-02-18T05:19:58.800Z,24.5
2019-02-18T05:20:48.909Z,24.4
2019-02-18T05:21:39.187Z,24.6
2019-02-18T05:22:28.951Z,24.8
2019-02-18T05:23:19.327Z,25.1
2019-02-18T05:24:08.380Z,25.3
2019-02-18T05:24:59.390Z,25.5
2019-02-18T05:25:48.939Z,25.7
2019-02-18T05:26:39.242Z,25.9
2019-02-18T05:27:41.342Z,26.1
2019-02-18T05:28:19.931Z,26.3
2019-02-18T05:29:09.752Z,26.5
2019-02-18T05:29:59.472Z,26.8
2019-02-18T05:30:49.311Z,26.9
2019-02-18T05:31:40.201Z,27.1
2019-02-18T05:32:30.077Z,27.3
2019-02-18T05:33:20.565Z,27.4
2019-02-18T05:34:10.212Z,27.3
2019-02-18T05:34:59.488Z,27.2
2019-02-18T05:35:49.829Z,27.1
2019-02-18T05:36:40.218Z,26.9
2019-02-18T05:37:29.304Z,26.8
2019-02-18T05:38:20.012Z,26.7
2019-02-18T05:39:22.297Z,26.6
2019-02-18T05:40:02.597Z,26.4
2019-02-18T05:40:50.619Z,26.3
2019-02-18T05:41:39.864Z,26.3
2019-02-18T05:42:30.518Z,26
2019-02-18T05:43:20.289Z,25.4
2019-02-18T05:44:09.770Z,25.1
2019-02-18T05:45:01.339Z,24.8
2019-02-18T05:45:50.894Z,24.6
2019-02-18T05:46:40.366Z,24.5
2019-02-18T05:47:30.305Z,24.4
2019-02-18T05:48:21.126Z,24.6
2019-02-18T05:49:09.765Z,24.8
2019-02-18T05:50:01.930Z,25
2019-02-18T05:50:50.956Z,25.3
2019-02-18T05:51:41.506Z,25.4
2019-02-18T05:52:31.125Z,25.6
2019-02-18T05:53:20.389Z,25.8
2019-02-18T05:54:11.433Z,26
2019-02-18T05:55:01.941Z,26.2
2019-02-18T05:55:51.027Z,26.4
2019-02-18T05:56:41.916Z,26.6
2019-02-18T05:57:32.563Z,26.8
2019-02-18T05:58:21.981Z,27
2019-02-18T05:59:11.805Z,27.1
2019-02-18T06:00:01.838Z,27.3
2019-02-18T06:00:51.450Z,27.3
2019-02-18T06:01:41.626Z,27.3
2019-02-18T06:02:32.433Z,27.1
2019-02-18T06:03:21.226Z,27.1
2019-02-18T06:06:09.830Z,26.6
2019-02-18T06:07:00.829Z,26.5
2019-02-18T06:07:50.228Z,26.4
2019-02-18T06:08:39.022Z,26.3
2019-02-18T06:09:39.050Z,26.1
2019-02-18T06:10:24.378Z,25.4
2019-02-18T06:11:09.137Z,25.1
2019-02-18T06:11:59.852Z,24.9
2019-02-18T06:12:49.462Z,24.7
2019-02-18T06:13:39.731Z,24.6
2019-02-18T06:14:30.780Z,24.4
2019-02-18T06:15:20.233Z,24.4
2019-02-18T06:16:10.654Z,24.7
2019-02-18T06:17:04.178Z,24.9
2019-02-18T06:17:51.556Z,25.3
2019-02-18T06:18:41.546Z,25.4
2019-02-18T06:19:30.624Z,25.6
2019-02-18T06:20:20.150Z,25.8
2019-02-18T06:21:10.691Z,25.9
2019-02-18T06:22:00.265Z,26.1
2019-02-18T06:22:51.816Z,26.4
2019-02-18T06:23:55.802Z,26.6
2019-02-18T06:24:31.100Z,26.8
2019-02-18T06:25:36.531Z,26.9
2019-02-18T06:26:12.130Z,27.2
2019-02-18T06:27:01.874Z,27.3
2019-02-18T06:28:41.766Z,27.3
2019-02-18T06:29:32.152Z,27.2
2019-02-18T06:30:21.089Z,27.1
2019-02-18T06:31:12.286Z,26.9
2019-02-18T06:32:01.183Z,26.8
2019-02-18T06:32:52.191Z,26.7
2019-02-18T06:33:41.556Z,26.6
2019-02-18T06:34:32.557Z,26.4
2019-02-18T06:35:21.315Z,26.3
2019-02-18T06:36:11.730Z,26.2
2019-02-18T06:37:01.943Z,25.6
2019-02-18T06:37:52.092Z,25.2
2019-02-18T06:38:41.840Z,24.9
2019-02-18T06:39:44.399Z,24.7
2019-02-18T06:40:22.405Z,24.4
2019-02-18T06:41:11.475Z,24.3
2019-02-18T06:42:02.367Z,24.2
2019-02-18T06:42:51.949Z,24.1
2019-02-18T06:43:43.057Z,23.9
2019-02-18T06:44:31.735Z,23.9
2019-02-18T06:45:22.648Z,23.8
2019-02-18T06:46:12.635Z,23.7
2019-02-18T06:47:03.502Z,23.6
2019-02-18T06:48:06.610Z,23.5
2019-02-18T06:48:42.834Z,23.4
2019-02-18T06:49:32.494Z,23.3
2019-02-18T06:50:22.017Z,23.3
2019-02-18T06:51:12.434Z,23.2
2019-02-18T06:52:17.734Z,23.1
2019-02-18T06:52:52.551Z,22.9
2019-02-18T06:53:43.701Z,22.9
2019-02-18T06:54:48.469Z,22.8
2019-02-18T06:55:23.031Z,22.7
2019-02-18T06:56:13.039Z,22.6
2019-02-18T06:57:03.772Z,22.6
2019-02-18T06:57:53.756Z,22.4
2019-02-18T06:58:42.700Z,22.4
2019-02-18T06:59:33.597Z,22.3
2019-02-18T07:00:24.076Z,22.3
2019-02-18T07:01:13.707Z,22.1
2019-02-18T07:02:03.019Z,22.1
2019-02-18T07:02:54.862Z,22
2019-02-18T07:03:43.056Z,21.9
2019-02-18T07:06:09.593Z,21.7
2019-02-18T07:07:00.492Z,21.6
2019-02-18T07:07:48.934Z,21.6
2019-02-18T07:08:39.676Z,21.4
2019-02-18T07:09:29.596Z,21.4
2019-02-18T07:10:18.251Z,21.3
2019-02-18T07:11:10.866Z,21.3
2019-02-18T07:12:50.351Z,21.1
2019-02-18T07:13:40.845Z,21
2019-02-18T07:14:30.239Z,20.9
2019-02-18T07:15:19.684Z,20.9
2019-02-18T07:16:10.891Z,20.8
2019-02-18T07:17:00.935Z,20.8
2019-02-18T07:17:49.850Z,20.6
2019-02-18T07:18:40.786Z,20.6
2019-02-18T07:20:02.693Z,20.5
2019-02-18T07:20:21.180Z,20.4
2019-02-18T07:21:09.243Z,20.4
2019-02-18T07:22:01.265Z,20.3
2019-02-18T07:22:51.840Z,20.3
2019-02-18T07:23:40.830Z,20.1
2019-02-18T07:24:30.978Z,20.1
2019-02-18T07:25:21.235Z,20
2019-02-18T07:26:11.003Z,19.9
2019-02-18T07:27:01.205Z,19.9
2019-02-18T07:27:51.640Z,19.8
2019-02-18T07:28:40.367Z,19.8
2019-02-18T07:29:30.952Z,19.7
2019-02-18T07:30:20.760Z,19.6
2019-02-18T07:31:11.660Z,19.6
2019-02-18T07:32:02.262Z,19.5
2019-02-18T07:32:51.677Z,19.4
2019-02-18T07:33:40.991Z,19.4
2019-02-18T07:34:32.337Z,19.3
2019-02-18T07:35:22.253Z,19.3
2019-02-18T07:36:11.794Z,19.2
2019-02-18T07:37:02.147Z,19.1
2019-02-18T07:38:06.007Z,19.1
2019-02-18T07:38:41.647Z,19
2019-02-18T07:39:30.319Z,18.9
2019-02-18T07:40:21.322Z,18.9
2019-02-18T07:41:12.824Z,18.8
2019-02-18T07:42:01.797Z,18.8
2019-02-18T07:44:32.261Z,18.6
2019-02-18T07:45:22.872Z,18.6
2019-02-18T07:46:12.594Z,18.5
2019-02-18T07:47:03.054Z,18.4
2019-02-18T07:47:52.481Z,18.4
2019-02-18T07:48:45.241Z,18.3
2019-02-18T07:49:32.100Z,18.3
2019-02-18T07:50:29.513Z,18.2
2019-02-18T07:51:16.196Z,18.1
2019-02-18T07:52:03.057Z,18.1
2019-02-18T07:52:52.278Z,18.1
2019-02-18T07:53:42.414Z,18
2019-02-18T07:54:33.263Z,18
2019-02-18T07:55:22.995Z,17.9
2019-02-18T07:56:13.423Z,17.9
2019-02-18T07:57:02.815Z,17.8
2019-02-18T07:57:53.473Z,17.8
2019-02-18T07:58:42.989Z,17.7
2019-02-18T07:59:32.247Z,17.6
2019-02-18T08:00:23.638Z,17.6
2019-02-18T08:01:13.763Z,17.6
2019-02-18T08:02:04.060Z,17.5
2019-02-18T08:02:53.863Z,17.4
2019-02-18T08:03:43.059Z,17.4
2019-02-18T08:04:33.356Z,17.4
2019-02-18T08:05:23.791Z,17.3
2019-02-18T08:06:13.220Z,17.3
2019-02-18T08:07:02.746Z,17.2
2019-02-18T08:07:54.168Z,17.2
2019-02-18T08:08:42.950Z,17.1
2019-02-18T08:09:33.422Z,17.1
2019-02-18T08:10:24.314Z,17.1
2019-02-18T08:12:03.837Z,16.9
2019-02-18T08:12:52.815Z,16.9
2019-02-18T08:13:44.693Z,16.9
2019-02-18T08:14:34.394Z,16.8
2019-02-18T08:15:24.422Z,16.8
2019-02-18T08:16:13.074Z,16.7
2019-02-18T08:17:04.612Z,16.7
2019-02-18T08:17:54.064Z,16.6
2019-02-18T08:18:43.887Z,16.6
2019-02-18T08:19:34.979Z,16.6
2019-02-18T08:20:24.519Z,16.5
2019-02-18T08:21:13.728Z,16.5
2019-02-18T08:22:03.830Z,16.4
2019-02-18T08:22:54.724Z,16.4
2019-02-18T08:23:45.244Z,16.4
2019-02-18T08:24:34.036Z,16.3
2019-02-18T08:25:24.356Z,16.3
2019-02-18T08:26:14.234Z,16.3
2019-02-18T08:27:05.383Z,16.3
2019-02-18T08:27:54.321Z,16.2
2019-02-18T08:28:45.739Z,16.1
2019-02-18T08:29:34.883Z,16.1
2019-02-18T08:30:24.738Z,16.1
2019-02-18T08:31:14.639Z,16
2019-02-18T08:32:05.816Z,16
2019-02-18T08:32:55.574Z,15.9
2019-02-18T08:33:45.689Z,15.9
2019-02-18T08:34:35.989Z,15.9
2019-02-18T08:35:25.551Z,15.8
2019-02-18T08:36:15.563Z,15.8
2019-02-18T08:37:05.899Z,15.8
2019-02-18T08:37:56.676Z,15.8
2019-02-18T08:38:45.943Z,15.8
2019-02-18T08:39:36.784Z,15.7
2019-02-18T08:40:31.565Z,15.6
2019-02-18T08:41:15.443Z,15.6
2019-02-18T08:42:06.026Z,15.6
2019-02-18T08:42:55.850Z,15.6
2019-02-18T08:43:45.555Z,15.5
2019-02-18T08:44:36.396Z,15.5
2019-02-18T08:45:26.823Z,15.4
2019-02-18T08:46:16.262Z,15.4
2019-02-18T08:47:05.768Z,15.4
2019-02-18T08:47:55.818Z,15.4
2019-02-18T08:48:47.297Z,15.4
2019-02-18T08:49:37.112Z,15.3
2019-02-18T08:50:26.255Z,15.3
2019-02-18T08:51:16.398Z,15.3
2019-02-18T08:52:05.595Z,15.2
2019-02-18T08:52:56.147Z,15.2
2019-02-18T08:53:49.140Z,15.1
2019-02-18T08:54:36.152Z,15.1
2019-02-18T08:55:26.779Z,15.1
2019-02-18T08:56:18.017Z,15.1
2019-02-18T08:57:05.887Z,15
2019-02-18T08:57:57.029Z,15
2019-02-18T08:58:47.168Z,15
2019-02-18T08:59:37.787Z,14.9
2019-02-18T09:00:27.777Z,14.9
2019-02-18T09:01:17.842Z,14.9
2019-02-18T09:02:07.931Z,14.9
2019-02-18T09:02:58.542Z,14.9
2019-02-18T09:03:47.216Z,14.8
2019-02-18T09:04:38.081Z,14.8
2019-02-18T09:05:28.919Z,14.8
2019-02-18T09:06:17.328Z,14.8
2019-02-18T09:07:08.891Z,14.8
2019-02-18T09:07:57.536Z,14.7
2019-02-18T09:08:48.191Z,14.7
2019-02-18T09:09:38.381Z,14.7
2019-02-18T09:10:40.219Z,14.6
2019-02-18T09:11:18.851Z,14.6
2019-02-18T09:12:08.854Z,14.6
2019-02-18T09:12:58.400Z,14.6
2019-02-18T09:13:49.113Z,14.6
2019-02-18T09:14:38.191Z,14.5
2019-02-18T09:15:29.103Z,14.5
2019-02-18T09:16:19.131Z,14.4
2019-02-18T09:17:07.931Z,14.4
2019-02-18T09:17:59.148Z,14.4
2019-02-18T09:18:48.746Z,14.4
2019-02-18T09:19:38.641Z,14.4
2019-02-18T09:20:32.306Z,14.3
2019-02-18T09:21:18.161Z,14.3
2019-02-18T09:22:08.993Z,14.3
2019-02-18T09:22:58.324Z,14.3
2019-02-18T09:23:49.731Z,14.3
2019-02-18T09:24:39.145Z,14.3
2019-02-18T09:25:29.875Z,14.2
2019-02-18T09:26:18.588Z,14.2
2019-02-18T09:27:08.209Z,14.2
2019-02-18T09:27:58.759Z,14.1
2019-02-18T09:28:48.740Z,14.1
2019-02-18T09:29:38.492Z,14.1
2019-02-18T09:30:28.885Z,14.1
2019-02-18T09:31:18.959Z,14.1
2019-02-18T09:32:08.435Z,14
2019-02-18T09:32:57.987Z,14
2019-02-18T09:33:48.290Z,14
2019-02-18T09:34:38.660Z,14
2019-02-18T09:35:29.774Z,14
2019-02-18T09:36:21.647Z,13.9
2019-02-18T09:37:09.168Z,13.9
2019-02-18T09:37:59.245Z,13.9
2019-02-18T09:38:50.299Z,13.9
2019-02-18T09:39:39.934Z,13.9
2019-02-18T09:40:28.799Z,13.9
2019-02-18T09:41:19.587Z,13.8
2019-02-18T09:42:10.532Z,13.8
2019-02-18T09:42:59.248Z,13.8
2019-02-18T09:43:49.804Z,13.8
2019-02-18T09:44:39.519Z,13.8
2019-02-18T09:45:30.487Z,13.8
2019-02-18T09:46:20.747Z,13.8
2019-02-18T09:47:10.491Z,13.7
2019-02-18T09:48:02.274Z,13.7
2019-02-18T09:48:50.374Z,13.7
2019-02-18T09:49:40.715Z,13.7
2019-02-18T09:50:30.950Z,13.6
2019-02-18T09:51:21.426Z,13.6
2019-02-18T09:52:10.994Z,13.6
2019-02-18T09:53:03.211Z,13.6
2019-02-18T09:53:51.819Z,13.6
2019-02-18T09:54:40.567Z,13.6
2019-02-18T09:55:30.796Z,13.6
2019-02-18T09:56:21.206Z,13.6
2019-02-18T09:57:11.973Z,13.5
2019-02-18T09:58:01.260Z,13.5
2019-02-18T09:58:53.787Z,13.5
2019-02-18T09:59:42.433Z,13.5
2019-02-18T10:00:31.249Z,13.4
2019-02-18T10:01:21.763Z,13.4
2019-02-18T10:02:12.052Z,13.4
2019-02-18T10:03:01.520Z,13.4
2019-02-18T10:03:51.095Z,13.4
2019-02-18T10:04:42.308Z,13.4
2019-02-18T10:07:10.040Z,13.4
2019-02-18T10:07:59.253Z,13.3
2019-02-18T10:08:49.616Z,13.3
2019-02-18T10:09:38.795Z,13.3
2019-02-18T10:10:30.590Z,13.3
2019-02-18T10:11:19.733Z,13.3
2019-02-18T10:12:21.096Z,13.3
2019-02-18T10:13:02.923Z,13.3
2019-02-18T10:13:49.080Z,13.3
2019-02-18T10:14:40.280Z,13.3
2019-02-18T10:15:30.707Z,13.2
2019-02-18T10:16:20.152Z,13.2
2019-02-18T10:17:10.142Z,13.2
2019-02-18T10:18:00.517Z,13.2
2019-02-18T10:18:49.974Z,13.2
2019-02-18T10:19:39.820Z,13.2
2019-02-18T10:20:30.934Z,13.1
2019-02-18T10:21:20.858Z,13.1
2019-02-18T10:22:09.667Z,13.1
2019-02-18T10:23:00.360Z,13.1
2019-02-18T10:23:50.875Z,13.1
2019-02-18T10:24:53.169Z,13.1
2019-02-18T10:25:31.301Z,13.1
2019-02-18T10:26:20.246Z,13.1
2019-02-18T10:27:09.929Z,13.1
2019-02-18T10:28:01.397Z,13.1
2019-02-18T10:28:51.531Z,13.1
2019-02-18T10:29:41.258Z,13
2019-02-18T10:30:31.194Z,13
2019-02-18T10:31:20.597Z,13
2019-02-18T10:32:11.463Z,13
2019-02-18T10:33:00.963Z,13
2019-02-18T10:33:49.378Z,13
2019-02-18T10:34:40.284Z,12.9
2019-02-18T10:35:33.939Z,12.9
2019-02-18T10:36:21.164Z,12.9
2019-02-18T10:37:12.061Z,12.9
2019-02-18T10:38:04.762Z,12.9
2019-02-18T10:38:51.389Z,12.9
2019-02-18T10:39:41.741Z,12.9
2019-02-18T10:40:31.213Z,12.9
2019-02-18T10:41:24.306Z,12.9
2019-02-18T10:42:10.786Z,12.9
2019-02-18T10:43:02.075Z,12.9
2019-02-18T10:43:51.705Z,12.9
2019-02-18T10:44:42.160Z,12.9
2019-02-18T10:45:33.090Z,12.9
2019-02-18T10:46:22.583Z,12.9
2019-02-18T10:47:13.468Z,12.8
2019-02-18T10:48:02.943Z,12.8
2019-02-18T10:48:52.421Z,12.8
2019-02-18T10:49:42.466Z,12.8
2019-02-18T10:50:35.377Z,12.8
2019-02-18T10:51:22.517Z,12.8
2019-02-18T10:52:13.130Z,12.8
2019-02-18T10:53:03.338Z,12.8
2019-02-18T10:53:53.567Z,12.8
2019-02-18T10:54:42.740Z,12.8
2019-02-18T10:55:34.226Z,12.8
2019-02-18T10:56:25.590Z,12.8
2019-02-18T10:57:13.530Z,12.8
2019-02-18T10:58:02.567Z,12.8
2019-02-18T10:58:52.542Z,12.8
2019-02-18T10:59:44.697Z,12.7
2019-02-18T11:00:33.234Z,12.7
2019-02-18T11:01:23.002Z,12.7
2019-02-18T11:02:13.772Z,12.7
2019-02-18T11:03:03.099Z,12.7
2019-02-18T11:03:53.832Z,12.7
2019-02-18T11:04:42.698Z,12.7
2019-02-18T11:05:36.016Z,12.7
2019-02-18T11:06:23.407Z,12.6
2019-02-18T11:07:12.843Z,12.7
2019-02-18T11:08:03.259Z,12.6
2019-02-18T11:08:53.735Z,12.6
2019-02-18T11:09:43.819Z,12.6
2019-02-18T11:10:33.874Z,12.6
2019-02-18T11:11:26.144Z,12.6
2019-02-18T11:12:13.560Z,12.6
2019-02-18T11:13:06.405Z,12.6
2019-02-18T11:13:54.379Z,12.6
2019-02-18T11:14:43.136Z,12.6
2019-02-18T11:15:33.467Z,12.6
2019-02-18T11:16:26.556Z,12.6
2019-02-18T11:17:14.751Z,12.6
2019-02-18T11:18:05.273Z,12.6
2019-02-18T11:18:53.721Z,12.6
2019-02-18T11:19:44.104Z,12.6
2019-02-18T11:20:34.356Z,12.6
2019-02-18T11:21:25.256Z,12.6